Latest Coastal Weather Observations for Ceduna

IDS60701

Issued at 11:55 am CST Tuesday 2 September 2014 (issued every 10 minutes, with the page automatically refreshed every 10 minutes)

About coastal observations | Map of coastal stations | Coastal observations for SA | Marine services | Other Formats
Station Details ID: 018012 Name: CEDUNA AMO Lat: -32.13 Lon: 133.70 Height: 15.3 m
Data from the previous 72 hours. | See also: Recent months at Ceduna
Date/Time
CST
Temp

°C
Wind Pressure Rain
since 9am
mm
Weather Cloud Vis
km
Sea
Height
m
Swell
Dir
 
Speed
knots
Gust
knots
hPa Trend Height
m
Period
s
Dir
02/11:30am 14.6 S 8 11 1028.7 - 0.0 - Mostly cloudy 10 - - - -
02/11:00am 14.3 SSE 8 12 1028.8 - 0.0 - Mostly cloudy 10 - - - -
02/10:30am 14.2 S 7 9 1028.8 - 0.0 - Mostly cloudy 10 - - - -
02/10:00am 14.1 N 3 4 1029.1 - 0.0 - Mostly cloudy 10 - - - -
02/09:30am 13.3 ENE 3 5 1028.9 - 0.0 - Mostly cloudy 10 - - - -
02/09:00am 13.2 SE 1 3 1028.6 F 2.6 Fine Mostly cloudy 10 - - - -
02/08:30am 12.6 E 4 5 1028.3 - 2.6 - Mostly cloudy 10 - - - -
02/08:00am 12.5 SE 5 7 1028.5 - 2.6 - Mostly cloudy 10 - - - -
02/07:30am 11.6 S 8 10 1027.9 - 2.6 - Mostly cloudy 10 - - - -
02/07:00am 11.9 S 8 11 1027.8 - 2.6 - Mostly cloudy 10 - - - -
02/06:30am 12.0 SSW 10 15 1027.2 - 2.6 - Mostly cloudy 10 - - - -
02/06:00am 11.2 S 8 10 1027.4 R 2.6 Fine Mostly cloudy 25 - - - -
02/05:30am 11.5 S 9 12 1027.0 - 2.6 - Partly cloudy 10 - - - -
02/05:00am 11.3 S 10 14 1026.9 - 2.6 - Cloudy 10 - - - -
02/04:30am 12.1 S 12 18 1026.3 - 2.6 - Cloudy 10 - - - -
02/04:00am 12.2 S 10 14 1026.5 - 2.6 - Cloudy 10 - - - -
02/03:30am 11.4 S 5 7 1026.5 - 2.6 - Cloudy 10 - - - -
02/03:00am 12.0 SSW 9 13 1026.2 R 2.6 - Mostly cloudy 10 - - - -
02/02:30am 10.7 S 6 9 1026.4 - 2.6 - Partly cloudy 10 - - - -
02/02:00am 10.6 S 8 10 1026.1 - 2.6 - Partly cloudy 10 - - - -
02/01:30am 11.6 S 11 16 1026.3 - 2.6 - Partly cloudy 10 - - - -
02/01:00am 11.7 S 10 13 1026.3 - 2.6 - Partly cloudy 10 - - - -
02/12:30am 12.2 S 9 13 1026.4 - 2.6 - Partly cloudy 10 - - - -
02/12:00am 12.3 S 9 13 1026.4 R 2.6 - Partly cloudy 10 - - - -
 
Date/Time
CST
Temp

°C
Wind Pressure Rain
since 9am
mm
Weather Cloud Vis
km
Sea
Height
m
Swell
Dir
 
Speed
knots
Gust
knots
hPa Trend Height
m
Period
s
Dir
01/11:30pm 11.9 S 10 16 1026.2 - 2.6 - Partly cloudy 10 - - - -
01/11:00pm 11.9 S 11 15 1025.9 - 2.6 - Partly cloudy 10 - - - -
01/10:30pm 12.3 SSW 11 14 1025.8 - 2.6 - Partly cloudy 10 - - - -
01/10:00pm 12.7 SW 14 19 1025.5 - 2.6 - Partly cloudy 10 - - - -
01/09:30pm 12.1 SSW 11 15 1025.4 - 2.6 - - 10 - - - -
01/09:00pm 12.4 SSW 14 19 1025.2 R 2.6 - Mostly clear 10 - - - -
01/08:30pm 12.2 SSW 13 16 1024.9 - 2.6 - - 10 - - - -
01/08:00pm 12.4 SSW 13 19 1024.5 - 2.6 - - 10 - - - -
01/07:30pm 12.6 SW 14 18 1024.0 - 2.6 - Partly cloudy 10 - - - -
01/07:00pm 12.9 SW 15 19 1023.5 - 2.6 - Partly cloudy 10 - - - -
01/06:30pm 12.7 SW 15 20 1023.1 - 2.6 - Partly cloudy 10 - - - -
01/06:00pm 13.0 SW 13 18 1022.7 R 2.6 - Partly cloudy 10 - - - -
01/05:30pm 13.4 SW 15 21 1022.3 - 2.6 - Partly cloudy 10 - - - -
01/05:00pm 13.6 SSW 15 22 1021.7 - 2.6 - Partly cloudy 10 - - - -
01/04:30pm 14.0 SW 17 23 1021.2 - 2.6 - Partly cloudy 10 - - - -
01/04:00pm 13.1 SW 13 18 1020.9 - 2.6 - Partly cloudy 10 - - - -
01/03:48pm 12.5 SW 15 25 1020.9 - 2.6 - Partly cloudy 8 - - - -
01/03:40pm 11.9 WSW 17 25 1021.0 - 2.4 - Partly cloudy 7 - - - -
01/03:30pm 12.3 SW 17 29 1020.7 - 1.8 - Partly cloudy 3 - - - -
01/03:21pm 11.7 SW 19 33 1020.8 - 1.4 - Partly cloudy 4 - - - -
01/03:18pm 14.1 SW 18 29 1020.6 - 0.2 - Partly cloudy 10 - - - -
01/03:00pm 16.2 SW 18 23 1020.0 R 0.2 Recent precip. Mostly cloudy 25 - - - -
01/02:30pm 15.2 SW 17 22 1019.9 - 0.2 - Partly cloudy 10 - - - -
01/02:00pm 15.3 WSW 16 21 1019.9 - 0.0 Showers Mostly clear 8 - - - -
01/01:30pm 14.1 WSW 19 26 1019.7 - 0.0 - Mostly cloudy 10 - - - -
01/01:00pm 16.6 WSW 16 21 1019.3 - 0.0 - Partly cloudy 10 - - - -
01/12:30pm 16.3 WSW 16 21 1019.4 - 0.0 - Partly cloudy 10 - - - -
01/12:00pm 16.3 WSW 16 21 1019.2 R 0.0 Fine Partly cloudy 30 - - - -
01/11:30am 15.9 WSW 16 20 1019.1 - 0.0 - Partly cloudy 10 - - - -
01/11:00am 15.3 WSW 13 18 1019.1 - 0.0 - Mostly clear 10 - - - -
01/10:30am 14.7 WSW 13 19 1019.0 - 0.0 - Partly cloudy 10 - - - -
01/10:00am 14.2 SW 14 18 1018.5 - 0.0 - Partly cloudy 10 - - - -
01/09:30am 14.5 SW 9 11 1018.5 - 0.0 - Partly cloudy 10 - - - -
01/09:00am 13.6 W 7 9 1018.2 R 5.0 Recent precip. Mostly cloudy 25 - - - -
01/08:30am 12.7 WNW 9 12 1017.9 - 5.0 - Partly cloudy 10 - - - -
01/08:13am 12.6 W 11 14 1017.7 - 4.8 Showers Partly cloudy 5 - - - -
01/08:00am 12.9 W 9 11 1017.5 - 3.4 Showers Mostly clear 2 - - - -
01/07:57am 12.9 W 9 10 1017.4 - 3.2 Showers Mostly clear 5 - - - -
01/07:30am 12.8 WNW 9 11 1016.6 - 3.2 - Mostly clear 10 - - - -
01/07:00am 12.5 NW 5 6 1016.3 - 3.2 Rain Mostly clear 10 - - - -
01/06:30am 12.6 NNW 5 6 1015.9 - 3.2 - Mostly clear 10 - - - -
01/06:00am 12.3 WNW 4 5 1015.9 R 3.2 Recent precip. Mostly cloudy 12 - - - -
01/05:30am 12.5 W 4 5 1015.4 - 3.2 - Partly cloudy 10 - - - -
01/05:00am 12.5 N 6 7 1015.0 - 3.0 - Partly cloudy 10 - - - -
01/04:30am 12.7 ESE 4 5 1015.0 - 2.8 - Partly cloudy 10 - - - -
01/04:00am 13.3 SSW 6 8 1015.2 - 2.6 - Partly cloudy 10 - - - -
01/03:30am 13.2 S 6 7 1015.1 - 2.6 - Partly cloudy 10 - - - -
01/03:00am 13.4 SW 4 6 1015.1 R 2.6 Recent precip. Cloudy 10 - - - -
01/02:30am 13.5 SSW 7 9 1014.3 - 2.4 - Partly cloudy 10 - - - -
01/02:00am 12.9 SSW 6 8 1014.4 - 2.2 - Partly cloudy 10 - - - -
01/01:30am 13.0 SSW 3 4 1014.1 - 2.2 - Partly cloudy 10 - - - -
01/01:00am 13.3 S 5 6 1014.0 - 2.0 - Partly cloudy 10 - - - -
01/12:30am 13.4 S 6 9 1014.5 - 1.8 - Partly cloudy 10 - - - -
01/12:00am 13.6 S 8 11 1014.0 R 1.6 Rain Cloudy 7 - - - -
 
Date/Time
CST
Temp

°C
Wind Pressure Rain
since 9am
mm
Weather Cloud Vis
km
Sea
Height
m
Swell
Dir
 
Speed
knots
Gust
knots
hPa Trend Height
m
Period
s
Dir
31/11:30pm 14.0 S 8 10 1013.9 - 0.6 - Partly cloudy 10 - - - -
31/11:00pm 14.4 SW 10 13 1014.0 - 0.6 - Partly cloudy 10 - - - -
31/10:30pm 13.9 SW 5 6 1013.6 - 0.6 - Partly cloudy 10 - - - -
31/10:00pm 13.9 SSW 5 6 1013.5 - 0.6 - Partly cloudy 10 - - - -
31/09:30pm 14.2 SSW 4 5 1013.6 - 0.6 - Partly cloudy 10 - - - -
31/09:00pm 14.6 NE 13 16 1013.2 F 0.6 Rain Cloudy 9 - - - -
31/08:30pm 14.9 SW 7 9 1014.8 - 0.0 - Partly cloudy 10 - - - -
31/08:00pm 14.4 S 5 6 1013.9 - 0.0 - Partly cloudy 10 - - - -
31/07:30pm 14.6 SSE 5 7 1012.9 - 0.0 - - 10 - - - -
31/07:00pm 14.9 SSE 7 9 1012.6 - 0.0 - - 10 - - - -
31/06:30pm 15.3 S 8 11 1012.9 - 0.0 - Partly cloudy 10 - - - -
31/06:00pm 15.7 S 10 13 1012.8 R 0.0 - Cloudy 10 - - - -
31/05:30pm 15.9 SSW 10 13 1012.5 - 0.0 - Partly cloudy 10 - - - -
31/05:00pm 16.3 SSW 12 16 1012.3 - 0.0 - Partly cloudy 10 - - - -
31/04:30pm 16.8 SSW 11 15 1011.9 - 0.0 - - 10 - - - -
31/04:00pm 16.9 SW 12 16 1012.0 - 0.0 - Partly cloudy 10 - - - -
31/03:30pm 17.9 SW 9 11 1011.8 - 0.0 - Partly cloudy 10 - - - -
31/03:00pm 18.2 SSW 6 8 1011.4 R 0.0 Fine Cloudy 35 - - - -
31/02:30pm 18.7 SW 8 10 1011.5 - 0.0 - - 10 - - - -
31/02:00pm 19.9 SW 6 8 1011.4 - 0.0 - - 10 - - - -
31/01:30pm 21.0 W 7 9 1011.4 - 0.0 - - 10 - - - -
31/01:00pm 21.1 W 5 7 1011.7 - 0.0 - - 10 - - - -
31/12:30pm 21.0 W 7 9 1012.1 - 0.0 - - 10 - - - -
31/12:00pm 21.9 NW 8 10 1012.3 F 0.0 Fine Mostly cloudy 35 - - - -
31/11:30am 21.4 NNW 9 12 1012.3 - 0.0 - - 10 - - - -
31/11:00am 21.1 NNW 10 13 1012.8 - 0.0 - - 10 - - - -
31/10:30am 20.6 N 8 12 1012.9 - 0.0 - - 10 - - - -
31/10:00am 19.3 N 7 9 1013.4 - 0.0 - - 10 - - - -
31/09:30am 18.4 N 9 12 1013.6 - 0.0 - - 10 - - - -
31/09:00am 18.2 N 11 13 1013.5 F 0.0 Fine Mostly cloudy 35 - - - -
31/08:30am 17.6 NNE 5 8 1013.8 - 0.0 - - 10 - - - -
31/08:00am 13.1 NE 2 4 1014.0 - 0.0 - - 10 - - - -
31/07:30am 10.4 NE 7 7 1013.5 - 0.0 - - 10 - - - -
31/07:00am 9.9 NE 6 7 1013.4 - 0.0 - - 10 - - - -
31/06:30am 10.8 NE 7 9 1013.2 - 0.0 - - 10 - - - -
31/06:00am 10.8 NE 9 10 1013.0 F 0.0 Fine Partly cloudy 35 - - - -
31/05:30am 10.9 NNE 9 10 1013.0 - 0.0 - - 10 - - - -
31/05:00am 11.0 N 8 9 1013.1 - 0.0 - - 10 - - - -
31/04:30am 13.4 NNW 7 8 1013.2 - 0.0 - - 10 - - - -
31/04:00am 14.8 WNW 8 10 1013.3 - 0.0 - - 10 - - - -
31/03:30am 16.0 WNW 7 9 1013.6 - 0.0 - - 10 - - - -
31/03:00am 16.3 WSW 12 15 1013.7 R 0.0 - Mostly clear 10 - - - -
31/02:30am 17.6 N 13 17 1012.6 - 0.0 - - 10 - - - -
31/02:00am 18.3 N 14 19 1012.7 - 0.0 - - 10 - - - -
31/01:30am 18.6 N 15 21 1012.8 - 0.0 - - 10 - - - -
31/01:00am 18.9 N 15 18 1013.1 - 0.0 - - 10 - - - -
31/12:30am 19.2 NNE 14 18 1013.3 - 0.0 - - 10 - - - -
31/12:00am 19.6 NNE 15 20 1013.4 F 0.0 - Partly cloudy 10 - - - -
 
Date/Time
CST
Temp

°C
Wind Pressure Rain
since 9am
mm
Weather Cloud Vis
km
Sea
Height
m
Swell
Dir
 
Speed
knots
Gust
knots
hPa Trend Height
m
Period
s
Dir
30/11:30pm 19.9 NNE 14 18 1013.7 - 0.0 - - 10 - - - -
30/11:00pm 20.0 NNE 13 18 1013.9 - 0.0 - - 10 - - - -
30/10:30pm 19.2 NNE 11 13 1014.1 - 0.0 - - 10 - - - -
30/10:00pm 16.9 NE 9 11 1014.6 - 0.0 - - 10 - - - -
30/09:30pm 16.0 NE 10 11 1014.9 - 0.0 - - 10 - - - -
30/09:00pm 15.4 NE 11 12 1015.0 F 0.0 - - 10 - - - -
30/08:30pm 16.0 NE 11 12 1015.1 - 0.0 - - 10 - - - -
30/08:00pm 16.5 NE 11 12 1015.2 - 0.0 - - 10 - - - -
30/07:30pm 18.2 NE 11 13 1015.1 - 0.0 - - 10 - - - -
30/07:00pm 16.8 NE 9 11 1015.3 - 0.0 - - 10 - - - -
30/06:30pm 19.2 NNE 8 9 1015.3 - 0.0 - - 10 - - - -
30/06:00pm 23.2 N 8 9 1015.2 F 0.0 - - 10 - - - -
30/05:30pm 25.7 N 11 14 1015.2 - 0.0 - - 10 - - - -
30/05:00pm 26.3 N 10 14 1015.2 - 0.0 - - 10 - - - -
30/04:30pm 25.9 N 13 17 1015.2 - 0.0 - - 10 - - - -
30/04:00pm 27.0 N 14 20 1015.2 - 0.0 - - 10 - - - -
30/03:30pm 27.3 N 16 22 1015.4 - 0.0 - - 10 - - - -
30/03:00pm 27.8 N 15 21 1015.6 F 0.0 - Mostly clear 10 - - - -
30/02:30pm 26.9 N 17 23 1015.9 - 0.0 - - 10 - - - -
30/02:00pm 26.3 N 16 21 1016.4 - 0.0 - - 10 - - - -
30/01:30pm 26.6 N 18 24 1017.0 - 0.0 - - 10 - - - -
30/01:00pm 25.7 N 18 24 1017.7 - 0.0 - - 10 - - - -
30/12:30pm 24.5 N 18 23 1018.3 - 0.0 - - 10 - - - -
30/12:00pm 23.5 N 17 24 1018.8 F 0.0 - Mostly clear 10 - - - -

Other Formats:

Comma delimited format used in spreadsheet applications
http://www.bom.gov.au/fwo/IDS60701/IDS60701.94653.axf

JavaScript Object Notation format (JSON) in row-major order
http://www.bom.gov.au/fwo/IDS60701/IDS60701.94653.json